Time;durP1;ratioP1;P1;durP2;ratioP2;P2;SDS_P1;SDS_P2;PMS_P1;PMS_P2;Temp;Humidity;BMP_temperature;BMP_pressure;BME280_temperature;BME280_humidity;BME280_pressure;Samples;Min_cycle;Max_cycle;Signal;HPM_P1;HPM_P2
2023/06/09 00:01:25;;;;;;;5.70;5.10;;;15.60;99.90;;;;;;5054359;28;20278;-72
2023/06/09 00:03:52;;;;;;;6.23;5.20;;;15.40;99.90;;;;;;5053855;28;20190;-72
2023/06/09 00:06:22;;;;;;;6.00;4.90;;;15.60;99.90;;;;;;5054142;28;20611;-71
2023/06/09 00:08:50;;;;;;;5.63;5.00;;;15.70;99.90;;;;;;5053974;28;20662;-71
2023/06/09 00:11:16;;;;;;;5.90;5.40;;;15.90;99.90;;;;;;5054168;28;20220;-69
2023/06/09 00:13:41;;;;;;;5.60;5.10;;;15.90;99.90;;;;;;5053255;28;20171;-72
2023/06/09 00:16:07;;;;;;;5.10;4.60;;;15.90;99.90;;;;;;5053135;28;20201;-71
2023/06/09 00:18:34;;;;;;;6.53;5.30;;;15.90;99.90;;;;;;5053891;28;20167;-71
2023/06/09 00:21:00;;;;;;;5.17;4.77;;;16.00;99.90;;;;;;5079541;23;20309;-67
2023/06/09 00:23:28;;;;;;;6.00;5.40;;;16.00;99.90;;;;;;5073402;28;20233;-67
2023/06/09 00:25:54;;;;;;;5.47;5.00;;;15.90;99.90;;;;;;5066832;28;20197;-66
2023/06/09 00:28:19;;;;;;;5.30;4.80;;;15.90;99.90;;;;;;5053349;28;20287;-67
2023/06/09 00:30:45;;;;;;;5.87;5.27;;;15.70;99.90;;;;;;5053139;28;20728;-67
2023/06/09 00:33:10;;;;;;;4.83;4.43;;;15.60;99.90;;;;;;5053240;28;20189;-67
2023/06/09 00:35:36;;;;;;;4.73;4.23;;;15.10;99.90;;;;;;5034848;28;20198;-67
2023/06/09 00:38:02;;;;;;;4.87;4.47;;;15.20;99.90;;;;;;5053607;28;20259;-66
2023/06/09 00:40:28;;;;;;;5.00;4.50;;;14.90;99.90;;;;;;5053005;28;20181;-66
2023/06/09 00:42:53;;;;;;;5.30;4.80;;;14.90;99.90;;;;;;5035233;28;20199;-66
2023/06/09 00:45:19;;;;;;;5.00;4.50;;;14.80;99.90;;;;;;5052616;28;20175;-67
2023/06/09 00:47:45;;;;;;;4.73;4.37;;;14.70;99.90;;;;;;5053195;28;20173;-67
2023/06/09 00:50:12;;;;;;;5.03;4.63;;;14.50;99.90;;;;;;5035134;28;20205;-67
2023/06/09 00:52:38;;;;;;;5.33;4.83;;;14.60;99.90;;;;;;5052891;28;20257;-67
2023/06/09 00:55:05;;;;;;;5.00;4.50;;;14.70;99.90;;;;;;5052429;28;20177;-67
2023/06/09 00:57:33;;;;;;;5.50;4.73;;;14.70;99.90;;;;;;5052952;28;20201;-67
2023/06/09 01:00:00;;;;;;;4.60;4.20;;;14.60;99.90;;;;;;5052716;28;20256;-68
2023/06/09 01:02:25;;;;;;;4.90;4.50;;;14.50;99.90;;;;;;5052556;28;20677;-67
2023/06/09 01:04:51;;;;;;;4.80;4.37;;;14.50;99.90;;;;;;5052216;28;20177;-67
2023/06/09 01:07:38;;;;;;;4.70;4.30;;;14.50;99.90;;;;;;5052815;28;20185;-67
2023/06/09 01:10:17;;;;;;;4.73;4.33;;;14.30;99.90;;;;;;5052512;28;20237;-67
2023/06/09 01:13:03;;;;;;;5.20;4.70;;;14.30;99.90;;;;;;5052484;28;20215;-67
2023/06/09 01:15:34;;;;;;;5.50;4.60;;;14.40;99.90;;;;;;5052422;28;20182;-67
2023/06/09 01:18:03;;;;;;;6.13;4.73;;;14.50;99.90;;;;;;5052671;28;20645;-67
2023/06/09 01:20:57;;;;;;;5.70;5.03;;;14.20;99.90;;;;;;5052425;28;20199;-67
2023/06/09 01:23:48;;;;;;;4.73;4.13;;;14.00;99.90;;;;;;5040875;28;20200;-66
2023/06/09 01:26:15;;;;;;;4.77;4.37;;;13.90;99.90;;;;;;5051977;28;20214;-67
2023/06/09 01:28:43;;;;;;;5.57;4.73;;;13.90;99.90;;;;;;5052231;28;20202;-67
2023/06/09 01:31:11;;;;;;;5.20;4.70;;;13.80;99.90;;;;;;5052170;28;20271;-67
2023/06/09 01:33:37;;;;;;;5.43;4.93;;;13.90;99.90;;;;;;5052204;28;20223;-67
2023/06/09 01:36:04;;;;;;;4.80;4.40;;;13.90;99.90;;;;;;5051940;28;20233;-66
2023/06/09 01:38:30;;;;;;;6.93;4.20;;;13.80;99.90;;;;;;5052181;28;20648;-67
2023/06/09 01:40:55;;;;;;;5.60;5.00;;;13.70;99.90;;;;;;5052206;28;20206;-66
2023/06/09 01:43:21;;;;;;;5.27;4.63;;;13.70;99.90;;;;;;5034257;28;20225;-67
2023/06/09 01:45:47;;;;;;;5.00;4.60;;;13.60;99.90;;;;;;5051542;28;20194;-67
2023/06/09 01:48:31;;;;;;;5.57;4.60;;;13.60;99.90;;;;;;5051980;28;20177;-67
2023/06/09 01:51:06;;;;;;;5.90;4.60;;;13.50;99.90;;;;;;5036879;28;20658;-67
2023/06/09 01:53:37;;;;;;;4.70;4.27;;;13.40;99.90;;;;;;5051547;28;20173;-67
2023/06/09 01:56:11;;;;;;;4.53;4.20;;;13.20;99.90;;;;;;5051706;28;20182;-66
2023/06/09 01:58:44;;;;;;;5.43;4.90;;;13.20;99.90;;;;;;5051667;28;20586;-67
2023/06/09 02:01:13;;;;;;;5.67;5.10;;;13.20;99.90;;;;;;5033826;28;20730;-67
2023/06/09 02:03:42;;;;;;;5.47;4.97;;;13.40;99.90;;;;;;5048923;28;20170;-67
2023/06/09 02:06:10;;;;;;;5.33;4.87;;;13.30;99.90;;;;;;5051348;28;20280;-67
2023/06/09 02:08:37;;;;;;;5.03;4.57;;;13.20;99.90;;;;;;5051577;28;20169;-67
2023/06/09 02:11:03;;;;;;;6.00;4.93;;;13.30;99.90;;;;;;5051644;28;20175;-68
2023/06/09 02:13:28;;;;;;;5.43;4.90;;;13.30;99.90;;;;;;5052006;28;20202;-67
2023/06/09 02:15:55;;;;;;;4.80;4.40;;;13.20;99.90;;;;;;5051366;28;20197;-68
2023/06/09 02:18:21;;;;;;;5.37;4.80;;;13.10;99.90;;;;;;5043671;28;20233;-67
2023/06/09 02:20:48;;;;;;;6.00;5.40;;;13.00;99.90;;;;;;5046057;28;20220;-67
2023/06/09 02:23:17;;;;;;;5.90;4.70;;;13.00;99.90;;;;;;5051504;28;20198;-68
2023/06/09 02:25:43;;;;;;;6.20;5.30;;;12.90;99.90;;;;;;5051145;28;20195;-67
2023/06/09 02:28:08;;;;;;;5.10;4.70;;;12.80;99.90;;;;;;5051728;28;20163;-67
2023/06/09 02:30:35;;;;;;;5.50;5.00;;;12.80;99.90;;;;;;5051192;28;20532;-67
2023/06/09 02:33:01;;;;;;;6.03;4.87;;;12.80;99.90;;;;;;5051409;28;20198;-68
2023/06/09 02:35:28;;;;;;;6.03;5.43;;;12.90;99.90;;;;;;5050962;28;20174;-67
2023/06/09 02:37:54;;;;;;;5.60;5.03;;;13.00;99.90;;;;;;5052863;28;20737;-67
2023/06/09 02:40:20;;;;;;;5.37;4.97;;;13.30;99.90;;;;;;5055535;28;20261;-67
2023/06/09 02:42:46;;;;;;;5.60;5.00;;;13.50;99.90;;;;;;5055434;28;20194;-67
2023/06/09 02:45:12;;;;;;;5.77;5.23;;;13.50;99.90;;;;;;5055146;28;20174;-67
2023/06/09 02:47:38;;;;;;;6.13;5.20;;;13.60;99.90;;;;;;5055343;28;20170;-67
2023/06/09 02:50:04;;;;;;;6.10;5.50;;;13.70;99.90;;;;;;5055327;28;20171;-67
2023/06/09 02:52:31;;;;;;;7.00;6.30;;;13.60;99.90;;;;;;5055178;28;20300;-68
2023/06/09 02:54:57;;;;;;;6.20;5.60;;;13.60;99.90;;;;;;5055458;28;20171;-67
2023/06/09 02:57:23;;;;;;;6.10;5.53;;;13.70;99.90;;;;;;5055196;28;20309;-66
2023/06/09 02:59:48;;;;;;;6.67;6.07;;;13.70;99.90;;;;;;5055560;28;20209;-68
2023/06/09 03:02:15;;;;;;;6.47;5.27;;;13.70;99.90;;;;;;5055766;28;20295;-67
2023/06/09 03:04:42;;;;;;;6.57;5.90;;;13.70;99.90;;;;;;5054830;28;20228;-67
2023/06/09 03:07:13;;;;;;;6.87;5.73;;;13.70;99.90;;;;;;5054919;28;20688;-67
2023/06/09 03:09:39;;;;;;;6.50;5.90;;;13.70;99.90;;;;;;5054834;28;20220;-67
2023/06/09 03:12:06;;;;;;;6.17;5.63;;;13.70;99.90;;;;;;5054856;28;20227;-67
2023/06/09 03:14:32;;;;;;;7.03;6.17;;;13.70;99.90;;;;;;5054745;28;20173;-67
2023/06/09 03:16:58;;;;;;;6.30;5.70;;;13.80;99.90;;;;;;5054741;28;20221;-67
2023/06/09 03:19:24;;;;;;;6.40;5.80;;;13.80;99.90;;;;;;5054428;28;20175;-68
2023/06/09 03:21:52;;;;;;;6.53;5.90;;;13.90;99.90;;;;;;5053831;28;20209;-67
2023/06/09 03:24:19;;;;;;;7.20;6.50;;;14.00;99.90;;;;;;5054129;28;20159;-67
2023/06/09 03:26:45;;;;;;;6.53;5.93;;;14.00;99.90;;;;;;5054547;28;20186;-67
2023/06/09 03:29:11;;;;;;;6.70;6.00;;;13.80;99.90;;;;;;5054498;28;20177;-68
2023/06/09 03:31:36;;;;;;;8.03;5.80;;;13.80;99.90;;;;;;5054506;28;20174;-67
2023/06/09 03:34:02;;;;;;;7.77;6.27;;;13.80;99.90;;;;;;5054276;28;20170;-67
2023/06/09 03:36:28;;;;;;;6.03;5.43;;;13.80;99.90;;;;;;5054081;28;20194;-67
2023/06/09 03:38:54;;;;;;;7.77;5.77;;;13.70;99.90;;;;;;5054216;28;20639;-68
2023/06/09 03:41:25;;;;;;;6.50;5.90;;;13.90;99.90;;;;;;5053754;28;20175;-67
2023/06/09 03:43:50;;;;;;;9.47;6.93;;;13.90;99.90;;;;;;5053797;28;20174;-67
2023/06/09 03:46:16;;;;;;;6.93;5.63;;;13.90;99.90;;;;;;5054157;28;20190;-67
2023/06/09 03:48:42;;;;;;;6.20;5.70;;;13.80;99.90;;;;;;5053712;28;20249;-67
2023/06/09 03:51:07;;;;;;;7.23;6.20;;;13.90;99.90;;;;;;5053899;28;20178;-66
2023/06/09 03:53:33;;;;;;;6.93;6.07;;;14.00;99.90;;;;;;5036081;28;20228;-67
2023/06/09 03:56:01;;;;;;;6.80;6.20;;;14.20;99.90;;;;;;5043916;28;20194;-68
2023/06/09 03:58:27;;;;;;;6.57;5.90;;;14.10;99.90;;;;;;5033276;28;20522;-67
2023/06/09 04:00:53;;;;;;;6.67;6.07;;;14.20;99.90;;;;;;5053932;28;20186;-68
2023/06/09 04:03:20;;;;;;;7.23;6.30;;;14.40;99.90;;;;;;5053822;28;20190;-68
2023/06/09 04:05:47;;;;;;;6.33;5.73;;;14.40;99.90;;;;;;5053458;28;20218;-68
2023/06/09 04:08:12;;;;;;;8.40;6.20;;;14.50;99.90;;;;;;5053995;28;20551;-67
2023/06/09 04:10:39;;;;;;;6.60;5.90;;;14.60;99.90;;;;;;5053815;28;20177;-67
2023/06/09 04:13:04;;;;;;;7.07;6.40;;;14.60;99.90;;;;;;5053626;28;20688;-67
2023/06/09 04:15:31;;;;;;;6.10;5.60;;;14.70;99.90;;;;;;5053193;28;20202;-68
2023/06/09 04:17:57;;;;;;;6.77;5.87;;;14.80;99.90;;;;;;5053800;28;20162;-67
2023/06/09 04:20:24;;;;;;;7.10;6.03;;;14.80;99.90;;;;;;5053675;28;20213;-67
2023/06/09 04:22:51;;;;;;;6.93;6.00;;;14.90;99.90;;;;;;5053338;28;20190;-68
2023/06/09 04:25:17;;;;;;;7.67;5.83;;;15.00;99.90;;;;;;5053133;28;20263;-67
2023/06/09 04:27:42;;;;;;;7.20;5.57;;;15.00;99.90;;;;;;5053545;28;20589;-67
2023/06/09 04:30:11;;;;;;;7.30;6.13;;;15.00;99.90;;;;;;5053499;28;20198;-68
2023/06/09 04:32:37;;;;;;;6.30;5.70;;;15.10;99.90;;;;;;5053065;28;20174;-68
2023/06/09 04:35:03;;;;;;;5.77;5.17;;;15.30;99.90;;;;;;5053378;28;20184;-67
2023/06/09 04:37:29;;;;;;;6.57;5.97;;;15.30;99.90;;;;;;5053221;28;20190;-68
2023/06/09 04:39:55;;;;;;;6.30;5.70;;;15.40;99.90;;;;;;5053109;28;20178;-67
2023/06/09 04:42:22;;;;;;;6.33;5.73;;;15.40;99.90;;;;;;5053048;28;20198;-67
2023/06/09 04:44:48;;;;;;;6.70;6.00;;;15.50;99.90;;;;;;5052771;28;20174;-67
2023/06/09 04:47:20;;;;;;;6.83;6.13;;;15.70;99.90;;;;;;5052952;28;20198;-67
2023/06/09 04:49:49;;;;;;;7.97;6.00;;;15.80;99.90;;;;;;5052945;28;20198;-67
2023/06/09 04:52:17;;;;;;;6.67;5.83;;;16.00;99.90;;;;;;5039765;28;20646;-67
2023/06/09 04:54:44;;;;;;;7.03;5.53;;;16.70;99.90;;;;;;5052451;28;20261;-67
2023/06/09 04:57:10;;;;;;;5.50;5.00;;;17.30;99.90;;;;;;5052913;28;20195;-67
2023/06/09 04:59:40;;;;;;;4.85;4.45;;;17.90;99.90;;;;;;5052430;28;20178;-67
2023/06/09 05:02:07;;;;;;;5.53;5.03;;;18.60;99.90;;;;;;5052349;28;20201;-66
2023/06/09 05:04:33;;;;;;;5.18;4.78;;;18.70;99.90;;;;;;5052315;28;20170;-67
2023/06/09 05:06:59;;;;;;;5.80;5.18;;;19.20;99.90;;;;;;5052684;28;20201;-67
2023/06/09 05:09:24;;;;;;;5.40;5.00;;;19.40;99.90;;;;;;5052557;28;20591;-68
2023/06/09 05:11:50;;;;;;;5.80;5.10;;;19.30;99.90;;;;;;5052413;28;20184;-67
2023/06/09 05:14:15;;;;;;;6.38;5.60;;;18.40;99.90;;;;;;5052167;28;20174;-67
2023/06/09 05:16:42;;;;;;;6.53;5.93;;;17.80;99.90;;;;;;5052288;28;20582;-68
2023/06/09 05:19:08;;;;;;;7.72;5.97;;;17.90;99.90;;;;;;5052399;28;20212;-67
2023/06/09 05:21:33;;;;;;;6.20;5.60;;;17.70;99.90;;;;;;5052073;28;20209;-68
2023/06/09 05:23:59;;;;;;;6.68;6.07;;;18.10;99.90;;;;;;5052195;28;20185;-68
2023/06/09 05:26:25;;;;;;;8.38;6.05;;;18.30;99.90;;;;;;5052467;28;20194;-68
2023/06/09 05:28:51;;;;;;;6.88;6.18;;;18.50;99.90;;;;;;5050765;28;20175;-67
2023/06/09 05:31:17;;;;;;;6.68;6.07;;;18.60;99.90;;;;;;5040285;28;20178;-66
2023/06/09 05:33:43;;;;;;;7.00;6.32;;;18.20;99.90;;;;;;5051778;28;20258;-67
2023/06/09 05:36:09;;;;;;;10.25;6.18;;;18.40;99.90;;;;;;5052097;28;20666;-68
2023/06/09 05:38:35;;;;;;;6.53;5.93;;;18.40;99.90;;;;;;5051794;28;20228;-67
2023/06/09 05:41:01;;;;;;;7.20;6.50;;;18.40;99.90;;;;;;5052000;28;20521;-67
2023/06/09 05:43:27;;;;;;;9.73;7.15;;;18.50;99.90;;;;;;5033874;28;20201;-67
2023/06/09 05:45:54;;;;;;;7.93;6.95;;;18.40;99.90;;;;;;5051789;28;20260;-67
2023/06/09 05:48:20;;;;;;;7.45;6.68;;;18.60;99.90;;;;;;5051804;28;20665;-67
2023/06/09 05:50:46;;;;;;;7.68;6.88;;;19.00;99.90;;;;;;5051780;28;20174;-67
2023/06/09 05:53:12;;;;;;;7.20;6.60;;;18.80;99.90;;;;;;5051899;28;20174;-68
2023/06/09 05:55:38;;;;;;;7.17;6.37;;;18.60;99.90;;;;;;5051593;28;20198;-67
2023/06/09 05:58:03;;;;;;;7.53;6.38;;;18.80;99.90;;;;;;5034005;28;20213;-66
2023/06/09 06:00:30;;;;;;;6.57;5.80;;;18.90;99.90;;;;;;5051724;28;20179;-67
2023/06/09 06:03:02;;;;;;;7.13;6.43;;;19.00;99.90;;;;;;5051516;28;20285;-67
2023/06/09 06:05:29;;;;;;;7.10;6.32;;;19.00;99.90;;;;;;5051404;28;20666;-68
2023/06/09 06:07:56;;;;;;;7.20;6.53;;;18.90;99.90;;;;;;5051527;28;20529;-67
2023/06/09 06:10:22;;;;;;;6.80;6.20;;;19.10;99.90;;;;;;5051695;28;20250;-67
2023/06/09 06:12:48;;;;;;;6.90;6.30;;;19.20;99.90;;;;;;5050550;28;20170;-67
2023/06/09 06:15:13;;;;;;;6.70;6.00;;;19.00;99.90;;;;;;5051415;28;20181;-68
2023/06/09 06:17:39;;;;;;;7.10;6.40;;;19.20;99.90;;;;;;5051263;28;20185;-67
2023/06/09 06:20:09;;;;;;;6.93;6.25;;;19.10;99.90;;;;;;5066355;23;20189;-70
2023/06/09 06:22:35;;;;;;;7.30;6.60;;;19.20;99.90;;;;;;5091581;28;20299;-69
2023/06/09 06:25:00;;;;;;;7.60;6.88;;;19.20;99.90;;;;;;5092400;28;20252;-70
2023/06/09 06:27:27;;;;;;;6.72;6.13;;;19.20;99.90;;;;;;5072687;28;20206;-70
2023/06/09 06:29:52;;;;;;;7.07;6.38;;;19.20;99.90;;;;;;5072523;28;20170;-70
2023/06/09 06:32:18;;;;;;;7.78;6.97;;;19.10;99.90;;;;;;5069731;28;20178;-68
2023/06/09 06:34:43;;;;;;;7.68;6.60;;;19.10;99.90;;;;;;5061040;28;20705;-70
2023/06/09 06:37:09;;;;;;;7.20;6.50;;;19.20;99.90;;;;;;5071788;28;20194;-68
2023/06/09 06:39:35;;;;;;;7.28;6.10;;;19.30;99.90;;;;;;5070840;28;20576;-69
2023/06/09 06:42:00;;;;;;;6.75;6.13;;;19.30;99.90;;;;;;5072422;28;20189;-71
2023/06/09 06:44:26;;;;;;;7.63;6.85;;;19.40;99.90;;;;;;5071002;28;20162;-70
2023/06/09 06:46:51;;;;;;;7.47;6.78;;;19.40;99.90;;;;;;5072168;28;20216;-70
2023/06/09 06:49:17;;;;;;;6.82;5.93;;;19.40;99.90;;;;;;5071967;28;20622;-69
2023/06/09 06:51:43;;;;;;;6.40;5.82;;;19.60;99.90;;;;;;5072229;28;21229;-71
2023/06/09 06:54:08;;;;;;;7.13;6.05;;;19.70;99.90;;;;;;5072144;28;20182;-71
2023/06/09 06:56:34;;;;;;;6.93;6.30;;;20.00;99.90;;;;;;5058434;28;20213;-71
2023/06/09 06:58:59;;;;;;;6.88;6.10;;;19.90;99.90;;;;;;5072751;28;20170;-71
2023/06/09 07:01:25;;;;;;;6.72;6.07;;;20.00;99.90;;;;;;5072236;28;20185;-70
2023/06/09 07:03:52;;;;;;;6.82;6.10;;;20.20;99.90;;;;;;5072484;28;20166;-70
2023/06/09 07:06:19;;;;;;;6.65;6.03;;;20.30;99.90;;;;;;5071931;28;20580;-70
2023/06/09 07:08:45;;;;;;;6.63;5.93;;;20.30;99.90;;;;;;5062636;28;20173;-70
2023/06/09 07:11:10;;;;;;;6.55;5.95;;;20.40;99.90;;;;;;5067991;28;20166;-69
2023/06/09 07:13:36;;;;;;;6.18;5.57;;;20.40;99.90;;;;;;5071952;28;20543;-71
2023/06/09 07:16:02;;;;;;;7.40;6.70;;;20.40;99.90;;;;;;5071796;28;20282;-71
2023/06/09 07:18:28;;;;;;;7.20;6.60;;;20.40;99.90;;;;;;5072058;28;20537;-70
2023/06/09 07:20:53;;;;;;;6.70;6.00;;;20.30;99.90;;;;;;5070373;28;20198;-71
2023/06/09 07:23:19;;;;;;;6.57;5.97;;;20.30;99.90;;;;;;5072598;28;20208;-70
2023/06/09 07:25:45;;;;;;;6.93;6.25;;;20.30;99.90;;;;;;5074143;28;20294;-70
2023/06/09 07:28:10;;;;;;;6.57;5.93;;;20.60;99.90;;;;;;5075545;28;20169;-70
2023/06/09 07:30:39;;;;;;;7.07;6.22;;;20.70;99.90;;;;;;5075297;28;20610;-71
2023/06/09 07:33:05;;;;;;;6.60;5.97;;;20.80;99.90;;;;;;5075754;28;20682;-70
2023/06/09 07:35:30;;;;;;;7.03;6.32;;;21.00;99.90;;;;;;5073523;28;20194;-69
2023/06/09 07:37:56;;;;;;;10.77;6.13;;;20.80;99.90;;;;;;5064560;28;20204;-71
2023/06/09 07:40:22;;;;;;;6.55;5.90;;;20.80;99.90;;;;;;5075787;28;20201;-71
2023/06/09 07:42:50;;;;;;;7.03;5.45;;;21.10;99.90;;;;;;5075634;28;20671;-71
2023/06/09 07:45:16;;;;;;;6.03;5.43;;;21.20;99.90;;;;;;5073858;28;20172;-70
2023/06/09 07:47:42;;;;;;;6.32;5.72;;;21.50;99.90;;;;;;5075290;28;20252;-70
2023/06/09 07:50:08;;;;;;;9.30;5.93;;;21.70;99.90;;;;;;5075141;28;20248;-70
2023/06/09 07:52:36;;;;;;;5.80;5.30;;;21.60;99.90;;;;;;5075411;28;20193;-69
2023/06/09 07:55:02;;;;;;;7.10;5.82;;;21.70;99.90;;;;;;5073280;28;20178;-71
2023/06/09 07:57:28;;;;;;;5.85;5.13;;;21.70;99.90;;;;;;5073705;28;20205;-71
2023/06/09 07:59:54;;;;;;;6.50;5.90;;;22.00;99.90;;;;;;5075096;28;20255;-70
2023/06/09 08:02:19;;;;;;;6.35;5.75;;;21.90;99.90;;;;;;5074846;28;20255;-71
2023/06/09 08:04:45;;;;;;;6.22;5.68;;;;;;;;;;5074435;28;20684;-70
2023/06/09 08:07:12;;;;;;;5.80;5.30;;;;;;;;;;5065114;28;20187;-70
2023/06/09 08:09:37;;;;;;;6.15;5.65;;;22.40;99.90;;;;;;5069903;28;20174;-71
2023/06/09 08:12:06;;;;;;;6.85;6.15;;;22.10;99.90;;;;;;5074464;28;20174;-71
2023/06/09 08:14:32;;;;;;;7.82;6.50;;;21.80;99.90;;;;;;5074115;28;20173;-71
2023/06/09 08:16:58;;;;;;;6.15;5.60;;;21.90;99.90;;;;;;5074411;28;20278;-71
2023/06/09 08:19:23;;;;;;;6.22;5.63;;;22.20;99.90;;;;;;5073957;28;20174;-68
2023/06/09 08:21:49;;;;;;;6.63;5.90;;;22.10;99.90;;;;;;5074631;28;20207;-71
2023/06/09 08:24:16;;;;;;;6.32;5.82;;;22.20;99.90;;;;;;5073086;28;20512;-71
2023/06/09 08:26:43;;;;;;;5.97;5.47;;;;;;;;;;5074313;28;20549;-66
2023/06/09 08:29:10;;;;;;;6.05;5.55;;;22.40;99.90;;;;;;5073983;28;20158;-66
2023/06/09 08:31:37;;;;;;;5.72;5.20;;;22.40;99.90;;;;;;5074096;28;20170;-66
2023/06/09 08:34:03;;;;;;;6.00;5.25;;;22.70;99.90;;;;;;5073471;28;20193;-67
2023/06/09 08:36:29;;;;;;;5.75;5.25;;;22.80;99.90;;;;;;5072966;28;20193;-67
2023/06/09 08:38:55;;;;;;;5.40;4.63;;;22.90;99.90;;;;;;5074143;28;20227;-67
2023/06/09 08:41:24;;;;;;;6.55;4.88;;;23.00;99.90;;;;;;5072419;28;20576;-67
2023/06/09 08:43:50;;;;;;;6.18;5.57;;;23.40;99.90;;;;;;5073666;28;20535;-67
2023/06/09 08:46:19;;;;;;;6.30;5.70;;;22.80;99.90;;;;;;5073512;28;20726;-66
2023/06/09 08:48:51;;;;;;;6.20;5.60;;;23.00;99.90;;;;;;5060490;28;20220;-66
2023/06/09 08:51:16;;;;;;;6.00;5.50;;;23.40;99.90;;;;;;5073864;28;20170;-67
2023/06/09 08:53:43;;;;;;;6.88;5.30;;;23.40;99.90;;;;;;5073591;28;20185;-67
2023/06/09 08:56:09;;;;;;;5.22;4.72;;;23.40;99.90;;;;;;5062260;28;20239;-67
2023/06/09 08:58:36;;;;;;;6.25;5.32;;;23.10;99.90;;;;;;5071786;28;20652;-66
2023/06/09 09:01:03;;;;;;;5.45;4.95;;;22.90;99.90;;;;;;5073601;28;20654;-67
2023/06/09 09:03:29;;;;;;;7.85;5.18;;;23.20;99.90;;;;;;5072913;28;20201;-66
2023/06/09 09:05:55;;;;;;;4.65;4.32;;;23.40;99.90;;;;;;5073035;28;20204;-66
2023/06/09 09:08:20;;;;;;;6.00;4.57;;;23.50;99.90;;;;;;5073484;28;20630;-67
2023/06/09 09:10:46;;;;;;;4.60;4.20;;;23.60;99.90;;;;;;5074323;28;20177;-67
2023/06/09 09:13:12;;;;;;;4.30;4.00;;;23.90;99.90;;;;;;5073289;28;20216;-66
2023/06/09 09:15:49;;;;;;;4.40;4.10;;;23.90;99.90;;;;;;5072693;28;20189;-66
2023/06/09 09:18:16;;;;;;;4.57;4.28;;;24.00;99.90;;;;;;5073177;28;20196;-66
2023/06/09 09:20:42;;;;;;;6.85;4.85;;;24.30;99.90;;;;;;5072829;28;20181;-67
2023/06/09 09:23:08;;;;;;;5.07;4.57;;;24.50;99.90;;;;;;5059496;28;20186;-67
2023/06/09 09:25:33;;;;;;;4.60;4.20;;;24.30;99.90;;;;;;5072170;28;20197;-67
2023/06/09 09:28:08;;;;;;;3.75;3.45;;;24.40;99.90;;;;;;5072783;28;20174;-66
2023/06/09 09:30:47;;;;;;;4.07;3.70;;;24.40;99.90;;;;;;5071650;28;20165;-67
2023/06/09 09:33:27;;;;;;;4.72;3.92;;;24.20;99.90;;;;;;5072595;28;20174;-67
2023/06/09 09:35:57;;;;;;;3.95;3.65;;;24.50;99.90;;;;;;5072260;28;20205;-66
2023/06/09 09:38:27;;;;;;;4.75;4.25;;;24.50;99.90;;;;;;5072215;28;20721;-67
2023/06/09 09:40:55;;;;;;;3.70;3.47;;;25.00;99.90;;;;;;5072397;28;20170;-66
2023/06/09 09:43:24;;;;;;;4.13;3.83;;;25.30;99.90;;;;;;5072448;28;20190;-66
2023/06/09 09:45:52;;;;;;;4.05;3.75;;;25.10;99.90;;;;;;5072509;28;20221;-66
2023/06/09 09:48:21;;;;;;;3.83;3.53;;;25.30;99.90;;;;;;5072344;28;20532;-67
2023/06/09 09:50:48;;;;;;;3.40;3.20;;;24.90;99.90;;;;;;5052849;28;20167;-65
2023/06/09 09:53:14;;;;;;;3.58;3.38;;;24.90;99.90;;;;;;5065326;28;20178;-66
2023/06/09 09:55:46;;;;;;;4.20;3.40;;;25.00;99.90;;;;;;5071280;28;20198;-67
2023/06/09 09:58:14;;;;;;;3.55;3.30;;;25.00;99.90;;;;;;5072768;28;20174;-67
2023/06/09 10:00:44;;;;;;;4.18;3.50;;;25.40;99.90;;;;;;5073024;28;20184;-67
2023/06/09 10:03:13;;;;;;;3.63;3.42;;;26.00;99.90;;;;;;5072891;28;20192;-67
2023/06/09 10:05:43;;;;;;;3.88;3.58;;;26.10;99.90;;;;;;5072732;28;20227;-66
2023/06/09 10:08:10;;;;;;;3.25;3.05;;;25.80;99.90;;;;;;5072597;28;20691;-66
2023/06/09 10:10:36;;;;;;;3.40;3.20;;;25.90;99.90;;;;;;5072990;28;20166;-65
2023/06/09 10:13:03;;;;;;;5.25;3.40;;;26.30;99.90;;;;;;5072690;28;20178;-66
2023/06/09 10:15:30;;;;;;;3.40;3.20;;;26.00;99.90;;;;;;5072950;28;20688;-66
2023/06/09 10:17:57;;;;;;;3.67;3.40;;;26.10;99.90;;;;;;5072772;28;20227;-66
2023/06/09 10:20:23;;;;;;;3.67;3.38;;;25.90;99.90;;;;;;5072200;28;20196;-66
2023/06/09 10:22:49;;;;;;;5.75;3.05;;;26.00;99.90;;;;;;5072715;28;20189;-66
2023/06/09 10:25:15;;;;;;;3.22;3.05;;;26.20;99.90;;;;;;5072202;28;20166;-66
2023/06/09 10:27:42;;;;;;;3.50;3.30;;;26.50;99.90;;;;;;5072471;28;20158;-66
2023/06/09 10:30:09;;;;;;;3.78;3.50;;;26.20;99.90;;;;;;5072046;28;20173;-67
2023/06/09 10:32:40;;;;;;;3.75;3.45;;;26.30;99.90;;;;;;5072119;28;20180;-68
2023/06/09 10:35:06;;;;;;;3.42;3.13;;;26.10;99.90;;;;;;5072710;28;20174;-69
2023/06/09 10:37:33;;;;;;;3.90;3.30;;;26.20;99.90;;;;;;5072341;28;20213;-69
2023/06/09 10:40:12;;;;;;;5.03;3.45;;;26.70;99.90;;;;;;5072948;28;20225;-69
2023/06/09 10:42:50;;;;;;;3.85;3.10;;;26.70;99.90;;;;;;5059850;28;20292;-68
2023/06/09 10:45:19;;;;;;;3.20;2.90;;;26.70;99.90;;;;;;5072549;28;20509;-68
2023/06/09 10:47:46;;;;;;;3.38;3.08;;;26.80;99.90;;;;;;5071585;28;20653;-70
2023/06/09 10:50:32;;;;;;;3.10;2.90;;;27.10;99.90;;;;;;5072097;28;20241;-69
2023/06/09 10:52:58;;;;;;;3.75;3.28;;;27.40;99.90;;;;;;5072734;28;20185;-70
2023/06/09 10:55:27;;;;;;;3.10;2.90;;;27.70;99.90;;;;;;5071541;28;20237;-69
2023/06/09 10:57:54;;;;;;;3.20;2.95;;;27.30;99.90;;;;;;5072207;28;20261;-68
2023/06/09 11:00:20;;;;;;;3.13;2.97;;;26.70;99.90;;;;;;5062637;28;20266;-69
2023/06/09 11:02:48;;;;;;;3.40;3.17;;;27.20;99.90;;;;;;5076221;28;20297;-68
2023/06/09 11:05:15;;;;;;;3.22;3.03;;;27.40;99.90;;;;;;5075958;28;20513;-68
2023/06/09 11:07:52;;;;;;;2.88;2.67;;;27.50;99.90;;;;;;5076142;28;20170;-68
2023/06/09 11:10:18;;;;;;;2.97;2.78;;;27.60;99.90;;;;;;5074406;28;20200;-69
2023/06/09 11:12:45;;;;;;;2.88;2.65;;;27.70;99.90;;;;;;5076117;28;20182;-70
2023/06/09 11:15:11;;;;;;;3.50;3.20;;;27.90;99.90;;;;;;5075521;28;20571;-69
2023/06/09 11:17:39;;;;;;;3.28;3.08;;;27.80;99.90;;;;;;5075961;28;20173;-70
2023/06/09 11:20:11;;;;;;;3.15;2.95;;;27.90;99.90;;;;;;5075341;28;20178;-70
2023/06/09 11:22:44;;;;;;;3.70;3.10;;;27.90;99.90;;;;;;5075527;28;20680;-68
2023/06/09 11:25:18;;;;;;;2.85;2.65;;;28.40;99.90;;;;;;5075033;28;20170;-69
2023/06/09 11:27:44;;;;;;;4.18;3.08;;;28.10;99.90;;;;;;5075363;28;20169;-70
2023/06/09 11:30:18;;;;;;;3.80;3.15;;;28.20;99.90;;;;;;5075344;28;20178;-69
2023/06/09 11:32:55;;;;;;;3.20;3.00;;;28.70;99.90;;;;;;5075346;28;20560;-69
2023/06/09 11:38:08;;;;;;;3.08;2.88;;;28.90;98.70;;;;;;5075316;28;20173;-70
2023/06/09 11:40:36;;;;;;;3.75;2.42;;;29.40;99.90;;;;;;5075403;28;20568;-71
2023/06/09 11:43:07;;;;;;;3.25;3.05;;;28.50;99.20;;;;;;5075673;28;20201;-71
2023/06/09 11:45:32;;;;;;;3.00;2.80;;;28.40;98.80;;;;;;5075596;28;20178;-70
2023/06/09 11:47:59;;;;;;;3.08;2.88;;;28.30;98.90;;;;;;5075572;28;20162;-70
2023/06/09 11:50:36;;;;;;;3.22;3.03;;;29.00;98.60;;;;;;5075750;28;20170;-71
2023/06/09 11:53:04;;;;;;;3.03;2.75;;;29.30;98.00;;;;;;5075415;28;20637;-71
2023/06/09 11:55:30;;;;;;;3.03;2.83;;;29.20;97.20;;;;;;5075049;28;20225;-71
2023/06/09 11:57:56;;;;;;;4.00;3.22;;;28.90;98.30;;;;;;5088511;28;20193;-70
2023/06/09 12:00:26;;;;;;;3.00;2.80;;;29.30;97.50;;;;;;5095775;28;20601;-71
2023/06/09 12:02:53;;;;;;;3.15;2.85;;;29.20;96.60;;;;;;5081342;28;20289;-70
2023/06/09 12:05:19;;;;;;;3.53;3.22;;;29.20;96.80;;;;;;5082140;28;20207;-70
2023/06/09 12:07:46;;;;;;;3.20;3.00;;;29.60;98.50;;;;;;5081699;28;20177;-70
2023/06/09 12:10:13;;;;;;;3.47;3.17;;;29.00;94.60;;;;;;5088220;28;20254;-70
2023/06/09 12:12:49;;;;;;;2.47;2.38;;;29.50;95.70;;;;;;5075088;28;20303;-69
2023/06/09 12:15:16;;;;;;;6.00;2.75;;;29.60;95.80;;;;;;5075228;28;20158;-71
2023/06/09 12:17:43;;;;;;;2.97;2.78;;;30.40;90.80;;;;;;5074943;28;20273;-70
2023/06/09 12:20:28;;;;;;;2.97;2.63;;;30.10;93.10;;;;;;5075233;28;20165;-70
2023/06/09 12:22:57;;;;;;;2.88;2.67;;;30.20;93.90;;;;;;5075326;28;20193;-69
2023/06/09 12:25:31;;;;;;;2.85;2.58;;;30.10;90.80;;;;;;5075054;28;20181;-71
2023/06/09 12:28:12;;;;;;;3.00;2.80;;;29.80;89.80;;;;;;5095263;28;20161;-70
2023/06/09 12:30:49;;;;;;;2.65;2.45;;;29.80;88.70;;;;;;5087835;28;20166;-70
2023/06/09 12:33:17;;;;;;;2.60;2.40;;;30.00;88.30;;;;;;5075532;28;20648;-70
2023/06/09 12:35:48;;;;;;;3.28;2.63;;;30.10;91.00;;;;;;5078353;28;20200;-70
2023/06/09 12:38:16;;;;;;;2.90;2.70;;;29.50;89.00;;;;;;5084354;28;20529;-70
2023/06/09 12:40:52;;;;;;;3.33;3.13;;;30.10;90.80;;;;;;5075212;28;20197;-70
2023/06/09 12:43:20;;;;;;;3.30;3.10;;;30.90;86.20;;;;;;5075128;28;20221;-69
2023/06/09 12:45:47;;;;;;;4.50;2.83;;;30.70;86.30;;;;;;5074504;28;20217;-70
2023/06/09 12:48:12;;;;;;;2.80;2.60;;;30.80;89.50;;;;;;5074254;28;20593;-67
2023/06/09 12:50:39;;;;;;;2.75;2.58;;;30.30;84.90;;;;;;5074754;28;20169;-66
2023/06/09 12:53:10;;;;;;;4.00;2.90;;;29.80;82.70;;;;;;5074735;28;20170;-66